Skip Navigation Links
NOAA logo - Click to go to the NOAA homepage
NOAA's National Weather Service
Alaska Aviation Weather Unit
  NWS logo - Click to go to the NWS homepage
Left Navbar Graphic     22 AKDT = 06 GMT

   
NOAA is celebrating 200 years of science, service, and stewardship. Visit the NOAA 200th celebration Web site to learn more.
USA.gov is the U.S. Government's official Web portal to all Federal, state and local government Web resources and services.
Facebook
NWS on Facebook

Important Change Regarding the AAWU Web Presence

 

Over the last several months, the AAWU has been working to navigate its webpages to a nationally supported server. Security, as well as other needs, have necessitated the change.  We have been given an extension for the site changeover while we diligently work at addressing feedback received. As of July 14, 2017, aawu.arh.noaa.gov will be discontinued. The new AAWU web address is weather.gov/aawu. It is now live and will run in-parallel with the old site until it is discontinued on July 14, 2017. Please continue to send any feedback or questions regarding the new webpages to nws.ar.aawu.webauthors@noaa.gov.  Thank you for your patience during this time of transition.
AAWU Home :: Display TAF Add Bookmark
TAF PAQT 260534Z 2606/2706 03008KT P6SM VCFG FEW007 SCT020
     FM260900 03006KT 1 1/2SM BR OVC007
     FM261200 03006KT 1/2SM FG OVC005
     FM261800 03006KT 1 1/2SM BR BKN007 OVC015
     FM262100 06006KT P6SM VCFG SCT007 OVC015=

METAR PAQT 260053Z AUTO 35004KT 10SM OVC020 11/06 A2999 RMK AO2 SLP155 T01060061 TSNO= METAR PAQT 260153Z AUTO 04010KT 10SM BKN019 OVC075 09/07 A2999 RMK AO2 SLP156 T00940067 TSNO= PAQT 260200Z AUTO 05010KT 10SM SCT019 OVC075 09/06 A2999= METAR PAQT 260253Z AUTO 04011KT 10SM FEW021 BKN075 09/06 A2999 RMK AO2 SLP157 T00940061 53002 TSNO= METAR PAQT 260353Z AUTO 03008KT 10SM SCT080 09/06 A3000 RMK AO2 SLP158 T00890061 TSNO= METAR PAQT 260453Z AUTO 04008KT 10SM FEW022 08/06 A3000 RMK AO2 SLP159 T00830056 TSNO= PAQT 260537Z AUTO 04008KT 10SM SCT013 BKN021 OVC060 08/06 A3001= PAQT 260549Z AUTO 04007KT 10SM BKN013 OVC060 08/06 A3001= METAR PAQT 260553Z AUTO 04008KT 10SM BKN013 OVC060 08/06 A3001 RMK AO2 SLP164 T00830056 10111 20083 51006 TSNO=
 Alaska TAF Map

NOAA's National Weather Service
Alaska Aviation Weather Unit
6930 Sand Lake Road
Anchorage, AK 99502-1845
Disclaimer
Credits
Glossary
Privacy Policy
About Us
Career Opportunities
Contact AAWU Internet Services Site last modified: April, 17th 2012